sensor_id;sensor_type;location;lat;lon;timestamp;P1;durP1;ratioP1;P2;durP2;ratioP2
5869;SDS011;2961;47.702;9.410;2022-10-12T00:01:44;55.60;;;30.17;;
5869;SDS011;2961;47.702;9.410;2022-10-12T00:04:10;61.70;;;31.07;;
5869;SDS011;2961;47.702;9.410;2022-10-12T00:06:37;55.23;;;31.63;;
5869;SDS011;2961;47.702;9.410;2022-10-12T00:09:04;61.20;;;31.10;;
5869;SDS011;2961;47.702;9.410;2022-10-12T00:11:32;56.47;;;31.60;;
5869;SDS011;2961;47.702;9.410;2022-10-12T00:13:59;69.00;;;37.10;;
5869;SDS011;2961;47.702;9.410;2022-10-12T00:16:26;69.67;;;37.00;;
5869;SDS011;2961;47.702;9.410;2022-10-12T00:18:55;57.07;;;34.40;;
5869;SDS011;2961;47.702;9.410;2022-10-12T00:21:23;68.57;;;36.60;;
5869;SDS011;2961;47.702;9.410;2022-10-12T00:23:51;72.37;;;34.40;;
5869;SDS011;2961;47.702;9.410;2022-10-12T00:26:21;65.27;;;35.70;;
5869;SDS011;2961;47.702;9.410;2022-10-12T00:28:54;62.10;;;34.53;;
5869;SDS011;2961;47.702;9.410;2022-10-12T00:31:22;70.33;;;37.13;;
5869;SDS011;2961;47.702;9.410;2022-10-12T00:33:49;57.33;;;32.43;;
5869;SDS011;2961;47.702;9.410;2022-10-12T00:36:17;52.23;;;31.13;;
5869;SDS011;2961;47.702;9.410;2022-10-12T00:38:46;54.47;;;30.53;;
5869;SDS011;2961;47.702;9.410;2022-10-12T00:41:14;64.93;;;29.90;;
5869;SDS011;2961;47.702;9.410;2022-10-12T00:43:41;63.27;;;31.30;;
5869;SDS011;2961;47.702;9.410;2022-10-12T00:46:12;58.13;;;29.07;;
5869;SDS011;2961;47.702;9.410;2022-10-12T00:48:41;50.93;;;27.37;;
5869;SDS011;2961;47.702;9.410;2022-10-12T00:51:09;53.47;;;30.47;;
5869;SDS011;2961;47.702;9.410;2022-10-12T00:53:39;56.50;;;30.87;;
5869;SDS011;2961;47.702;9.410;2022-10-12T00:56:12;51.47;;;29.20;;
5869;SDS011;2961;47.702;9.410;2022-10-12T00:58:43;63.23;;;31.30;;
5869;SDS011;2961;47.702;9.410;2022-10-12T01:01:11;64.63;;;31.20;;
5869;SDS011;2961;47.702;9.410;2022-10-12T01:03:38;57.97;;;31.87;;
5869;SDS011;2961;47.702;9.410;2022-10-12T01:06:06;54.27;;;29.60;;
5869;SDS011;2961;47.702;9.410;2022-10-12T01:08:33;60.17;;;33.07;;
5869;SDS011;2961;47.702;9.410;2022-10-12T01:11:01;64.60;;;32.10;;
5869;SDS011;2961;47.702;9.410;2022-10-12T01:13:28;51.47;;;29.90;;
5869;SDS011;2961;47.702;9.410;2022-10-12T01:15:57;52.03;;;30.60;;
5869;SDS011;2961;47.702;9.410;2022-10-12T01:18:32;56.03;;;30.97;;
5869;SDS011;2961;47.702;9.410;2022-10-12T01:21:09;49.40;;;28.63;;
5869;SDS011;2961;47.702;9.410;2022-10-12T01:24:05;55.43;;;28.80;;
5869;SDS011;2961;47.702;9.410;2022-10-12T01:29:57;53.07;;;28.93;;
5869;SDS011;2961;47.702;9.410;2022-10-12T01:32:34;63.00;;;30.80;;
5869;SDS011;2961;47.702;9.410;2022-10-12T01:35:15;58.73;;;29.80;;
5869;SDS011;2961;47.702;9.410;2022-10-12T01:37:47;55.57;;;29.30;;
5869;SDS011;2961;47.702;9.410;2022-10-12T01:40:23;57.27;;;32.70;;
5869;SDS011;2961;47.702;9.410;2022-10-12T01:42:54;56.90;;;31.17;;
5869;SDS011;2961;47.702;9.410;2022-10-12T01:45:24;54.00;;;28.80;;
5869;SDS011;2961;47.702;9.410;2022-10-12T01:47:51;59.80;;;30.80;;
5869;SDS011;2961;47.702;9.410;2022-10-12T01:50:20;54.20;;;29.50;;
5869;SDS011;2961;47.702;9.410;2022-10-12T01:52:53;57.10;;;30.00;;
5869;SDS011;2961;47.702;9.410;2022-10-12T01:55:27;59.30;;;30.20;;
5869;SDS011;2961;47.702;9.410;2022-10-12T02:01:00;60.17;;;30.37;;
5869;SDS011;2961;47.702;9.410;2022-10-12T02:03:34;55.33;;;29.80;;
5869;SDS011;2961;47.702;9.410;2022-10-12T02:06:05;63.43;;;30.77;;
5869;SDS011;2961;47.702;9.410;2022-10-12T02:08:35;50.20;;;27.70;;
5869;SDS011;2961;47.702;9.410;2022-10-12T02:11:07;57.97;;;31.20;;
5869;SDS011;2961;47.702;9.410;2022-10-12T02:13:37;54.03;;;31.00;;
5869;SDS011;2961;47.702;9.410;2022-10-12T02:16:08;51.60;;;28.70;;
5869;SDS011;2961;47.702;9.410;2022-10-12T02:18:38;63.07;;;30.33;;
5869;SDS011;2961;47.702;9.410;2022-10-12T02:21:08;62.40;;;32.87;;
5869;SDS011;2961;47.702;9.410;2022-10-12T02:23:38;55.73;;;30.27;;
5869;SDS011;2961;47.702;9.410;2022-10-12T02:26:06;52.03;;;29.43;;
5869;SDS011;2961;47.702;9.410;2022-10-12T02:28:33;46.83;;;30.43;;
5869;SDS011;2961;47.702;9.410;2022-10-12T02:31:05;52.43;;;28.10;;
5869;SDS011;2961;47.702;9.410;2022-10-12T02:33:42;48.87;;;26.70;;
5869;SDS011;2961;47.702;9.410;2022-10-12T02:36:17;64.90;;;30.27;;
5869;SDS011;2961;47.702;9.410;2022-10-12T02:38:51;56.33;;;31.27;;
5869;SDS011;2961;47.702;9.410;2022-10-12T02:41:24;55.07;;;29.80;;
5869;SDS011;2961;47.702;9.410;2022-10-12T02:43:55;54.63;;;29.37;;
5869;SDS011;2961;47.702;9.410;2022-10-12T02:46:26;60.60;;;31.30;;
5869;SDS011;2961;47.702;9.410;2022-10-12T02:48:55;55.50;;;30.23;;
5869;SDS011;2961;47.702;9.410;2022-10-12T02:51:24;52.80;;;31.13;;
5869;SDS011;2961;47.702;9.410;2022-10-12T02:53:52;53.00;;;30.30;;
5869;SDS011;2961;47.702;9.410;2022-10-12T02:56:20;48.57;;;29.53;;
5869;SDS011;2961;47.702;9.410;2022-10-12T02:58:46;56.20;;;30.03;;
5869;SDS011;2961;47.702;9.410;2022-10-12T03:01:14;55.60;;;28.63;;
5869;SDS011;2961;47.702;9.410;2022-10-12T03:03:42;46.67;;;27.43;;
5869;SDS011;2961;47.702;9.410;2022-10-12T03:06:10;56.13;;;28.00;;
5869;SDS011;2961;47.702;9.410;2022-10-12T03:08:37;51.77;;;27.50;;
5869;SDS011;2961;47.702;9.410;2022-10-12T03:11:04;54.80;;;28.23;;
5869;SDS011;2961;47.702;9.410;2022-10-12T03:13:32;54.53;;;29.37;;
5869;SDS011;2961;47.702;9.410;2022-10-12T03:16:00;51.50;;;27.13;;
5869;SDS011;2961;47.702;9.410;2022-10-12T03:18:27;41.40;;;24.13;;
5869;SDS011;2961;47.702;9.410;2022-10-12T03:20:56;54.13;;;25.03;;
5869;SDS011;2961;47.702;9.410;2022-10-12T03:23:22;44.03;;;26.33;;
5869;SDS011;2961;47.702;9.410;2022-10-12T03:25:49;47.70;;;25.80;;
5869;SDS011;2961;47.702;9.410;2022-10-12T03:28:16;51.37;;;27.37;;
5869;SDS011;2961;47.702;9.410;2022-10-12T03:30:43;57.10;;;28.77;;
5869;SDS011;2961;47.702;9.410;2022-10-12T03:33:10;47.77;;;27.90;;
5869;SDS011;2961;47.702;9.410;2022-10-12T03:35:37;50.07;;;28.60;;
5869;SDS011;2961;47.702;9.410;2022-10-12T03:38:05;52.40;;;29.47;;
5869;SDS011;2961;47.702;9.410;2022-10-12T03:40:32;57.77;;;27.60;;
5869;SDS011;2961;47.702;9.410;2022-10-12T03:42:59;50.00;;;28.10;;
5869;SDS011;2961;47.702;9.410;2022-10-12T03:45:26;42.67;;;25.73;;
5869;SDS011;2961;47.702;9.410;2022-10-12T03:47:53;50.40;;;26.90;;
5869;SDS011;2961;47.702;9.410;2022-10-12T03:50:20;48.90;;;25.33;;
5869;SDS011;2961;47.702;9.410;2022-10-12T03:52:47;39.63;;;25.07;;
5869;SDS011;2961;47.702;9.410;2022-10-12T03:55:15;58.80;;;26.30;;
5869;SDS011;2961;47.702;9.410;2022-10-12T03:57:42;58.67;;;25.90;;
5869;SDS011;2961;47.702;9.410;2022-10-12T04:00:10;50.23;;;24.00;;
5869;SDS011;2961;47.702;9.410;2022-10-12T04:02:38;43.63;;;23.80;;
5869;SDS011;2961;47.702;9.410;2022-10-12T04:05:05;43.23;;;23.63;;
5869;SDS011;2961;47.702;9.410;2022-10-12T04:07:33;43.47;;;26.10;;
5869;SDS011;2961;47.702;9.410;2022-10-12T04:10:00;40.60;;;23.90;;
5869;SDS011;2961;47.702;9.410;2022-10-12T04:12:28;40.20;;;24.80;;
5869;SDS011;2961;47.702;9.410;2022-10-12T04:14:55;49.33;;;25.13;;
5869;SDS011;2961;47.702;9.410;2022-10-12T04:17:21;43.33;;;24.30;;
5869;SDS011;2961;47.702;9.410;2022-10-12T04:19:48;48.33;;;25.00;;
5869;SDS011;2961;47.702;9.410;2022-10-12T04:22:15;44.13;;;24.00;;
5869;SDS011;2961;47.702;9.410;2022-10-12T04:24:42;43.30;;;25.27;;
5869;SDS011;2961;47.702;9.410;2022-10-12T04:27:08;42.90;;;24.50;;
5869;SDS011;2961;47.702;9.410;2022-10-12T04:29:37;43.53;;;26.90;;
5869;SDS011;2961;47.702;9.410;2022-10-12T04:32:04;48.57;;;24.33;;
5869;SDS011;2961;47.702;9.410;2022-10-12T04:34:31;40.60;;;25.17;;
5869;SDS011;2961;47.702;9.410;2022-10-12T04:37:00;40.47;;;25.23;;
5869;SDS011;2961;47.702;9.410;2022-10-12T04:39:26;42.10;;;26.10;;
5869;SDS011;2961;47.702;9.410;2022-10-12T04:41:53;44.63;;;25.33;;
5869;SDS011;2961;47.702;9.410;2022-10-12T04:44:20;42.03;;;24.53;;
5869;SDS011;2961;47.702;9.410;2022-10-12T04:46:48;50.67;;;26.30;;
5869;SDS011;2961;47.702;9.410;2022-10-12T04:49:15;50.43;;;25.23;;
5869;SDS011;2961;47.702;9.410;2022-10-12T04:51:42;45.17;;;24.83;;
5869;SDS011;2961;47.702;9.410;2022-10-12T04:54:09;40.77;;;24.00;;
5869;SDS011;2961;47.702;9.410;2022-10-12T04:56:36;46.43;;;24.77;;
5869;SDS011;2961;47.702;9.410;2022-10-12T04:59:03;52.23;;;26.07;;
5869;SDS011;2961;47.702;9.410;2022-10-12T05:01:30;43.07;;;25.03;;
5869;SDS011;2961;47.702;9.410;2022-10-12T05:03:58;42.53;;;26.03;;
5869;SDS011;2961;47.702;9.410;2022-10-12T05:06:25;42.77;;;23.87;;
5869;SDS011;2961;47.702;9.410;2022-10-12T05:08:52;47.93;;;26.63;;
5869;SDS011;2961;47.702;9.410;2022-10-12T05:11:19;49.17;;;25.00;;
5869;SDS011;2961;47.702;9.410;2022-10-12T05:13:46;50.77;;;23.77;;
5869;SDS011;2961;47.702;9.410;2022-10-12T05:16:12;44.97;;;25.63;;
5869;SDS011;2961;47.702;9.410;2022-10-12T05:18:39;52.80;;;26.60;;
5869;SDS011;2961;47.702;9.410;2022-10-12T05:21:07;46.83;;;27.80;;
5869;SDS011;2961;47.702;9.410;2022-10-12T05:23:34;45.70;;;28.33;;
5869;SDS011;2961;47.702;9.410;2022-10-12T05:26:01;50.07;;;26.97;;
5869;SDS011;2961;47.702;9.410;2022-10-12T05:28:28;47.67;;;26.57;;
5869;SDS011;2961;47.702;9.410;2022-10-12T05:30:55;49.63;;;26.27;;
5869;SDS011;2961;47.702;9.410;2022-10-12T05:33:22;53.90;;;28.10;;
5869;SDS011;2961;47.702;9.410;2022-10-12T05:35:48;48.70;;;27.80;;
5869;SDS011;2961;47.702;9.410;2022-10-12T05:38:17;47.13;;;23.93;;
5869;SDS011;2961;47.702;9.410;2022-10-12T05:40:44;56.15;;;29.00;;
5869;SDS011;2961;47.702;9.410;2022-10-12T05:43:10;44.42;;;28.13;;
5869;SDS011;2961;47.702;9.410;2022-10-12T05:45:37;46.50;;;26.63;;
5869;SDS011;2961;47.702;9.410;2022-10-12T05:48:04;50.70;;;25.57;;
5869;SDS011;2961;47.702;9.410;2022-10-12T05:50:31;46.10;;;25.20;;
5869;SDS011;2961;47.702;9.410;2022-10-12T05:52:58;55.83;;;26.37;;
5869;SDS011;2961;47.702;9.410;2022-10-12T05:55:26;51.10;;;24.43;;
5869;SDS011;2961;47.702;9.410;2022-10-12T05:57:52;46.10;;;24.20;;
5869;SDS011;2961;47.702;9.410;2022-10-12T06:00:19;54.27;;;25.23;;
5869;SDS011;2961;47.702;9.410;2022-10-12T06:02:46;48.80;;;25.70;;
5869;SDS011;2961;47.702;9.410;2022-10-12T06:05:13;47.17;;;24.50;;
5869;SDS011;2961;47.702;9.410;2022-10-12T06:07:40;49.20;;;26.53;;
5869;SDS011;2961;47.702;9.410;2022-10-12T06:10:07;46.33;;;25.10;;
5869;SDS011;2961;47.702;9.410;2022-10-12T06:12:35;50.93;;;26.47;;
5869;SDS011;2961;47.702;9.410;2022-10-12T06:15:02;49.73;;;25.63;;
5869;SDS011;2961;47.702;9.410;2022-10-12T06:17:29;56.67;;;27.37;;
5869;SDS011;2961;47.702;9.410;2022-10-12T06:19:56;44.97;;;25.87;;
5869;SDS011;2961;47.702;9.410;2022-10-12T06:22:23;48.03;;;23.67;;
5869;SDS011;2961;47.702;9.410;2022-10-12T06:24:49;49.67;;;24.30;;
5869;SDS011;2961;47.702;9.410;2022-10-12T06:27:16;52.67;;;25.60;;
5869;SDS011;2961;47.702;9.410;2022-10-12T06:29:45;59.93;;;27.47;;
5869;SDS011;2961;47.702;9.410;2022-10-12T06:32:12;51.83;;;29.57;;
5869;SDS011;2961;47.702;9.410;2022-10-12T06:34:39;48.43;;;27.97;;
5869;SDS011;2961;47.702;9.410;2022-10-12T06:37:06;52.37;;;28.43;;
5869;SDS011;2961;47.702;9.410;2022-10-12T06:39:32;47.00;;;26.27;;
5869;SDS011;2961;47.702;9.410;2022-10-12T06:41:59;47.57;;;24.70;;
5869;SDS011;2961;47.702;9.410;2022-10-12T06:44:26;39.07;;;22.93;;
5869;SDS011;2961;47.702;9.410;2022-10-12T06:46:54;44.17;;;23.90;;
5869;SDS011;2961;47.702;9.410;2022-10-12T06:49:20;50.00;;;27.20;;
5869;SDS011;2961;47.702;9.410;2022-10-12T06:51:47;46.93;;;25.47;;
5869;SDS011;2961;47.702;9.410;2022-10-12T06:54:14;37.33;;;23.07;;
5869;SDS011;2961;47.702;9.410;2022-10-12T06:56:41;37.67;;;20.60;;
5869;SDS011;2961;47.702;9.410;2022-10-12T06:59:09;36.53;;;22.40;;
5869;SDS011;2961;47.702;9.410;2022-10-12T07:01:37;44.93;;;23.90;;
5869;SDS011;2961;47.702;9.410;2022-10-12T07:04:05;36.60;;;21.93;;
5869;SDS011;2961;47.702;9.410;2022-10-12T07:06:32;44.17;;;23.03;;
5869;SDS011;2961;47.702;9.410;2022-10-12T07:08:59;38.60;;;22.20;;
5869;SDS011;2961;47.702;9.410;2022-10-12T07:11:26;35.43;;;21.07;;
5869;SDS011;2961;47.702;9.410;2022-10-12T07:13:53;37.70;;;21.20;;
5869;SDS011;2961;47.702;9.410;2022-10-12T07:16:19;45.17;;;25.00;;
5869;SDS011;2961;47.702;9.410;2022-10-12T07:18:46;36.10;;;21.47;;
5869;SDS011;2961;47.702;9.410;2022-10-12T07:21:14;42.73;;;22.57;;
5869;SDS011;2961;47.702;9.410;2022-10-12T07:23:41;42.43;;;21.43;;
5869;SDS011;2961;47.702;9.410;2022-10-12T07:26:08;43.00;;;23.80;;
5869;SDS011;2961;47.702;9.410;2022-10-12T07:28:35;42.00;;;24.20;;
5869;SDS011;2961;47.702;9.410;2022-10-12T07:31:03;52.47;;;24.00;;
5869;SDS011;2961;47.702;9.410;2022-10-12T07:33:31;43.07;;;21.70;;
5869;SDS011;2961;47.702;9.410;2022-10-12T07:35:59;61.30;;;25.50;;
5869;SDS011;2961;47.702;9.410;2022-10-12T07:38:28;50.33;;;23.40;;
5869;SDS011;2961;47.702;9.410;2022-10-12T07:40:57;42.77;;;25.33;;
5869;SDS011;2961;47.702;9.410;2022-10-12T07:43:25;38.40;;;23.50;;
5869;SDS011;2961;47.702;9.410;2022-10-12T07:45:52;45.30;;;22.70;;
5869;SDS011;2961;47.702;9.410;2022-10-12T07:48:18;45.50;;;23.70;;
5869;SDS011;2961;47.702;9.410;2022-10-12T07:50:45;43.53;;;22.53;;
5869;SDS011;2961;47.702;9.410;2022-10-12T07:53:12;43.90;;;24.37;;
5869;SDS011;2961;47.702;9.410;2022-10-12T07:55:41;53.70;;;24.77;;
5869;SDS011;2961;47.702;9.410;2022-10-12T07:58:08;46.50;;;23.40;;
5869;SDS011;2961;47.702;9.410;2022-10-12T08:00:34;43.03;;;23.83;;
5869;SDS011;2961;47.702;9.410;2022-10-12T08:03:01;42.07;;;23.50;;
5869;SDS011;2961;47.702;9.410;2022-10-12T08:05:28;50.17;;;23.30;;
5869;SDS011;2961;47.702;9.410;2022-10-12T08:07:55;48.97;;;24.40;;
5869;SDS011;2961;47.702;9.410;2022-10-12T08:10:22;44.93;;;23.53;;
5869;SDS011;2961;47.702;9.410;2022-10-12T08:12:50;58.20;;;25.10;;
5869;SDS011;2961;47.702;9.410;2022-10-12T08:15:17;57.93;;;24.17;;
5869;SDS011;2961;47.702;9.410;2022-10-12T08:17:43;49.43;;;23.27;;
5869;SDS011;2961;47.702;9.410;2022-10-12T08:20:10;42.00;;;22.83;;
5869;SDS011;2961;47.702;9.410;2022-10-12T08:22:37;38.93;;;22.10;;
5869;SDS011;2961;47.702;9.410;2022-10-12T08:25:04;40.70;;;21.77;;
5869;SDS011;2961;47.702;9.410;2022-10-12T08:27:31;38.83;;;21.60;;
5869;SDS011;2961;47.702;9.410;2022-10-12T08:30:01;31.83;;;19.87;;
5869;SDS011;2961;47.702;9.410;2022-10-12T08:32:29;45.70;;;22.03;;
5869;SDS011;2961;47.702;9.410;2022-10-12T08:34:56;34.10;;;20.73;;
5869;SDS011;2961;47.702;9.410;2022-10-12T08:37:23;33.83;;;19.47;;
5869;SDS011;2961;47.702;9.410;2022-10-12T08:39:50;31.80;;;18.17;;
5869;SDS011;2961;47.702;9.410;2022-10-12T08:42:22;34.47;;;19.10;;
5869;SDS011;2961;47.702;9.410;2022-10-12T08:45:12;28.53;;;17.00;;
5869;SDS011;2961;47.702;9.410;2022-10-12T08:47:50;24.77;;;16.67;;
5869;SDS011;2961;47.702;9.410;2022-10-12T08:50:21;23.00;;;15.57;;
5869;SDS011;2961;47.702;9.410;2022-10-12T08:52:53;25.70;;;15.97;;
5869;SDS011;2961;47.702;9.410;2022-10-12T08:55:24;30.23;;;14.83;;
5869;SDS011;2961;47.702;9.410;2022-10-12T08:57:59;24.20;;;15.50;;
5869;SDS011;2961;47.702;9.410;2022-10-12T09:00:28;23.27;;;14.27;;
5869;SDS011;2961;47.702;9.410;2022-10-12T09:03:00;31.47;;;15.40;;
5869;SDS011;2961;47.702;9.410;2022-10-12T09:05:39;28.30;;;15.30;;
5869;SDS011;2961;47.702;9.410;2022-10-12T09:08:11;27.23;;;14.00;;
5869;SDS011;2961;47.702;9.410;2022-10-12T09:10:42;20.70;;;13.20;;
5869;SDS011;2961;47.702;9.410;2022-10-12T09:13:24;34.57;;;17.27;;
5869;SDS011;2961;47.702;9.410;2022-10-12T09:16:04;34.40;;;19.87;;
5869;SDS011;2961;47.702;9.410;2022-10-12T09:18:38;35.83;;;19.40;;
5869;SDS011;2961;47.702;9.410;2022-10-12T09:21:06;37.13;;;19.00;;
5869;SDS011;2961;47.702;9.410;2022-10-12T09:23:36;23.37;;;15.63;;
5869;SDS011;2961;47.702;9.410;2022-10-12T09:26:09;33.20;;;21.63;;
5869;SDS011;2961;47.702;9.410;2022-10-12T09:28:39;37.50;;;21.73;;
5869;SDS011;2961;47.702;9.410;2022-10-12T09:31:13;48.53;;;28.13;;
5869;SDS011;2961;47.702;9.410;2022-10-12T09:33:50;38.20;;;24.00;;
5869;SDS011;2961;47.702;9.410;2022-10-12T09:36:19;30.33;;;20.40;;
5869;SDS011;2961;47.702;9.410;2022-10-12T09:38:48;41.63;;;24.43;;
5869;SDS011;2961;47.702;9.410;2022-10-12T09:41:15;30.53;;;19.47;;
5869;SDS011;2961;47.702;9.410;2022-10-12T09:43:46;34.87;;;19.93;;
5869;SDS011;2961;47.702;9.410;2022-10-12T09:46:17;32.93;;;19.00;;
5869;SDS011;2961;47.702;9.410;2022-10-12T09:48:55;30.10;;;19.27;;
5869;SDS011;2961;47.702;9.410;2022-10-12T09:51:22;32.13;;;20.40;;
5869;SDS011;2961;47.702;9.410;2022-10-12T09:53:49;37.03;;;23.60;;
5869;SDS011;2961;47.702;9.410;2022-10-12T09:56:21;37.80;;;23.97;;
5869;SDS011;2961;47.702;9.410;2022-10-12T09:58:52;32.03;;;19.10;;
5869;SDS011;2961;47.702;9.410;2022-10-12T10:01:23;30.80;;;21.00;;
5869;SDS011;2961;47.702;9.410;2022-10-12T10:06:42;39.33;;;21.20;;
5869;SDS011;2961;47.702;9.410;2022-10-12T10:12:10;32.83;;;17.33;;
5869;SDS011;2961;47.702;9.410;2022-10-12T10:14:40;29.23;;;17.40;;
5869;SDS011;2961;47.702;9.410;2022-10-12T10:17:11;28.13;;;16.03;;
5869;SDS011;2961;47.702;9.410;2022-10-12T10:19:46;33.03;;;17.70;;
5869;SDS011;2961;47.702;9.410;2022-10-12T10:22:14;23.13;;;12.70;;
5869;SDS011;2961;47.702;9.410;2022-10-12T10:24:41;20.00;;;11.93;;
5869;SDS011;2961;47.702;9.410;2022-10-12T10:27:09;20.73;;;13.47;;
5869;SDS011;2961;47.702;9.410;2022-10-12T10:29:54;13.20;;;8.10;;
5869;SDS011;2961;47.702;9.410;2022-10-12T10:32:35;12.93;;;9.53;;
5869;SDS011;2961;47.702;9.410;2022-10-12T10:35:03;9.20;;;7.30;;
5869;SDS011;2961;47.702;9.410;2022-10-12T10:37:31;11.90;;;8.37;;
5869;SDS011;2961;47.702;9.410;2022-10-12T10:39:59;14.90;;;8.90;;
5869;SDS011;2961;47.702;9.410;2022-10-12T10:42:28;16.07;;;9.60;;
5869;SDS011;2961;47.702;9.410;2022-10-12T10:44:58;11.57;;;9.40;;
5869;SDS011;2961;47.702;9.410;2022-10-12T10:47:26;17.50;;;9.13;;
5869;SDS011;2961;47.702;9.410;2022-10-12T10:49:56;19.20;;;9.80;;
5869;SDS011;2961;47.702;9.410;2022-10-12T10:52:24;16.30;;;9.80;;
5869;SDS011;2961;47.702;9.410;2022-10-12T10:57:45;16.23;;;9.10;;
5869;SDS011;2961;47.702;9.410;2022-10-12T11:00:19;17.03;;;11.13;;
5869;SDS011;2961;47.702;9.410;2022-10-12T11:02:48;15.60;;;9.90;;
5869;SDS011;2961;47.702;9.410;2022-10-12T11:05:19;21.40;;;11.80;;
5869;SDS011;2961;47.702;9.410;2022-10-12T11:07:50;14.23;;;9.73;;
5869;SDS011;2961;47.702;9.410;2022-10-12T11:10:22;26.73;;;11.63;;
5869;SDS011;2961;47.702;9.410;2022-10-12T11:12:54;18.77;;;11.33;;
5869;SDS011;2961;47.702;9.410;2022-10-12T11:15:27;15.83;;;11.03;;
5869;SDS011;2961;47.702;9.410;2022-10-12T11:18:01;16.67;;;9.53;;
5869;SDS011;2961;47.702;9.410;2022-10-12T11:20:38;13.83;;;10.73;;
5869;SDS011;2961;47.702;9.410;2022-10-12T11:23:13;24.93;;;9.60;;
5869;SDS011;2961;47.702;9.410;2022-10-12T11:25:46;24.83;;;13.73;;
5869;SDS011;2961;47.702;9.410;2022-10-12T11:28:27;22.67;;;11.63;;
5869;SDS011;2961;47.702;9.410;2022-10-12T11:30:56;22.90;;;11.17;;
5869;SDS011;2961;47.702;9.410;2022-10-12T11:33:24;30.57;;;13.10;;
5869;SDS011;2961;47.702;9.410;2022-10-12T11:35:55;20.83;;;10.90;;
5869;SDS011;2961;47.702;9.410;2022-10-12T11:38:24;22.23;;;12.97;;
5869;SDS011;2961;47.702;9.410;2022-10-12T11:40:58;27.00;;;14.13;;
5869;SDS011;2961;47.702;9.410;2022-10-12T11:43:29;15.97;;;11.70;;
5869;SDS011;2961;47.702;9.410;2022-10-12T11:46:01;22.63;;;10.50;;
5869;SDS011;2961;47.702;9.410;2022-10-12T11:48:33;17.63;;;12.07;;
5869;SDS011;2961;47.702;9.410;2022-10-12T11:51:06;19.60;;;12.63;;
5869;SDS011;2961;47.702;9.410;2022-10-12T11:53:33;15.07;;;10.20;;
5869;SDS011;2961;47.702;9.410;2022-10-12T11:56:07;23.10;;;12.57;;
5869;SDS011;2961;47.702;9.410;2022-10-12T11:58:41;20.53;;;12.17;;
5869;SDS011;2961;47.702;9.410;2022-10-12T12:01:14;22.00;;;13.53;;
5869;SDS011;2961;47.702;9.410;2022-10-12T12:04:13;26.43;;;12.00;;
5869;SDS011;2961;47.702;9.410;2022-10-12T12:07:00;19.20;;;12.33;;
5869;SDS011;2961;47.702;9.410;2022-10-12T12:09:29;22.27;;;13.63;;
5869;SDS011;2961;47.702;9.410;2022-10-12T12:12:15;26.43;;;11.77;;
5869;SDS011;2961;47.702;9.410;2022-10-12T12:20:58;19.83;;;10.87;;
5869;SDS011;2961;47.702;9.410;2022-10-12T12:23:29;24.93;;;10.60;;
5869;SDS011;2961;47.702;9.410;2022-10-12T12:26:04;22.20;;;12.77;;
5869;SDS011;2961;47.702;9.410;2022-10-12T12:28:38;19.63;;;11.10;;
5869;SDS011;2961;47.702;9.410;2022-10-12T12:31:08;24.27;;;11.50;;
5869;SDS011;2961;47.702;9.410;2022-10-12T12:33:39;19.73;;;11.53;;
5869;SDS011;2961;47.702;9.410;2022-10-12T12:36:11;28.73;;;11.37;;
5869;SDS011;2961;47.702;9.410;2022-10-12T12:38:45;16.27;;;11.17;;
5869;SDS011;2961;47.702;9.410;2022-10-12T12:41:15;19.23;;;10.83;;
5869;SDS011;2961;47.702;9.410;2022-10-12T12:43:51;31.13;;;12.57;;
5869;SDS011;2961;47.702;9.410;2022-10-12T12:46:20;19.60;;;12.07;;
5869;SDS011;2961;47.702;9.410;2022-10-12T12:48:56;23.80;;;11.43;;
5869;SDS011;2961;47.702;9.410;2022-10-12T12:51:24;25.30;;;12.00;;
5869;SDS011;2961;47.702;9.410;2022-10-12T12:54:01;27.77;;;11.07;;
5869;SDS011;2961;47.702;9.410;2022-10-12T12:56:31;22.57;;;10.67;;
5869;SDS011;2961;47.702;9.410;2022-10-12T12:59:15;13.30;;;9.20;;
5869;SDS011;2961;47.702;9.410;2022-10-12T13:02:02;16.77;;;9.93;;
5869;SDS011;2961;47.702;9.410;2022-10-12T13:04:53;20.23;;;11.50;;
5869;SDS011;2961;47.702;9.410;2022-10-12T13:07:48;23.10;;;12.23;;
5869;SDS011;2961;47.702;9.410;2022-10-12T13:10:29;27.63;;;11.57;;
5869;SDS011;2961;47.702;9.410;2022-10-12T13:13:10;20.67;;;11.60;;
5869;SDS011;2961;47.702;9.410;2022-10-12T13:16:08;20.77;;;10.73;;
5869;SDS011;2961;47.702;9.410;2022-10-12T13:18:47;15.83;;;10.27;;
5869;SDS011;2961;47.702;9.410;2022-10-12T13:21:21;14.60;;;9.57;;
5869;SDS011;2961;47.702;9.410;2022-10-12T13:23:51;22.50;;;11.10;;
5869;SDS011;2961;47.702;9.410;2022-10-12T13:26:24;16.77;;;8.00;;
5869;SDS011;2961;47.702;9.410;2022-10-12T13:28:52;17.03;;;9.67;;
5869;SDS011;2961;47.702;9.410;2022-10-12T13:31:22;14.50;;;10.97;;
5869;SDS011;2961;47.702;9.410;2022-10-12T13:33:55;21.57;;;10.13;;
5869;SDS011;2961;47.702;9.410;2022-10-12T13:36:25;16.98;;;9.38;;
5869;SDS011;2961;47.702;9.410;2022-10-12T13:38:54;20.40;;;10.80;;
5869;SDS011;2961;47.702;9.410;2022-10-12T13:41:24;16.87;;;10.50;;
5869;SDS011;2961;47.702;9.410;2022-10-12T13:43:54;21.37;;;9.60;;
5869;SDS011;2961;47.702;9.410;2022-10-12T13:46:33;16.63;;;9.87;;
5869;SDS011;2961;47.702;9.410;2022-10-12T13:49:08;14.40;;;10.10;;
5869;SDS011;2961;47.702;9.410;2022-10-12T13:51:38;21.73;;;9.10;;
5869;SDS011;2961;47.702;9.410;2022-10-12T13:54:12;23.73;;;11.00;;
5869;SDS011;2961;47.702;9.410;2022-10-12T13:56:42;23.67;;;11.73;;
5869;SDS011;2961;47.702;9.410;2022-10-12T13:59:10;16.50;;;10.30;;
5869;SDS011;2961;47.702;9.410;2022-10-12T14:01:46;26.83;;;10.97;;
5869;SDS011;2961;47.702;9.410;2022-10-12T14:04:14;20.77;;;13.50;;
5869;SDS011;2961;47.702;9.410;2022-10-12T14:06:42;17.65;;;12.38;;
5869;SDS011;2961;47.702;9.410;2022-10-12T14:09:15;20.90;;;14.03;;
5869;SDS011;2961;47.702;9.410;2022-10-12T14:11:47;42.73;;;25.47;;
5869;SDS011;2961;47.702;9.410;2022-10-12T14:14:16;28.77;;;13.27;;
5869;SDS011;2961;47.702;9.410;2022-10-12T14:16:45;38.57;;;17.03;;
5869;SDS011;2961;47.702;9.410;2022-10-12T14:19:18;35.27;;;16.10;;
5869;SDS011;2961;47.702;9.410;2022-10-12T14:21:46;29.00;;;14.37;;
5869;SDS011;2961;47.702;9.410;2022-10-12T14:24:15;39.80;;;21.20;;
5869;SDS011;2961;47.702;9.410;2022-10-12T14:26:44;27.90;;;17.27;;
5869;SDS011;2961;47.702;9.410;2022-10-12T14:29:33;23.20;;;16.50;;
5869;SDS011;2961;47.702;9.410;2022-10-12T14:32:05;26.67;;;11.13;;
5869;SDS011;2961;47.702;9.410;2022-10-12T14:35:02;23.57;;;11.40;;
5869;SDS011;2961;47.702;9.410;2022-10-12T14:37:35;18.53;;;10.90;;
5869;SDS011;2961;47.702;9.410;2022-10-12T14:43:17;12.27;;;9.60;;
5869;SDS011;2961;47.702;9.410;2022-10-12T14:45:48;17.60;;;10.23;;
5869;SDS011;2961;47.702;9.410;2022-10-12T14:48:16;13.17;;;10.70;;
5869;SDS011;2961;47.702;9.410;2022-10-12T14:50:47;19.63;;;11.10;;
5869;SDS011;2961;47.702;9.410;2022-10-12T14:53:14;35.63;;;10.40;;
5869;SDS011;2961;47.702;9.410;2022-10-12T14:55:41;21.00;;;10.67;;
5869;SDS011;2961;47.702;9.410;2022-10-12T14:58:12;11.53;;;8.60;;
5869;SDS011;2961;47.702;9.410;2022-10-12T15:00:40;18.90;;;9.23;;
5869;SDS011;2961;47.702;9.410;2022-10-12T15:03:08;19.20;;;9.50;;
5869;SDS011;2961;47.702;9.410;2022-10-12T15:05:35;18.90;;;8.87;;
5869;SDS011;2961;47.702;9.410;2022-10-12T15:08:02;14.13;;;8.37;;
5869;SDS011;2961;47.702;9.410;2022-10-12T15:10:33;18.83;;;9.10;;
5869;SDS011;2961;47.702;9.410;2022-10-12T15:13:00;16.03;;;7.97;;
5869;SDS011;2961;47.702;9.410;2022-10-12T15:15:30;17.30;;;8.45;;
5869;SDS011;2961;47.702;9.410;2022-10-12T15:17:59;22.87;;;9.50;;
5869;SDS011;2961;47.702;9.410;2022-10-12T15:20:27;14.00;;;8.33;;
5869;SDS011;2961;47.702;9.410;2022-10-12T15:22:55;17.33;;;8.20;;
5869;SDS011;2961;47.702;9.410;2022-10-12T15:25:23;14.37;;;7.73;;
5869;SDS011;2961;47.702;9.410;2022-10-12T15:27:53;12.20;;;7.90;;
5869;SDS011;2961;47.702;9.410;2022-10-12T15:30:20;15.40;;;9.77;;
5869;SDS011;2961;47.702;9.410;2022-10-12T15:32:48;18.33;;;9.33;;